createdAt,value
2017-09-12T00:00:30.666Z,93457.87
2017-09-12T00:02:58.513Z,93447.16
2017-09-12T00:05:26.218Z,93452.42
2017-09-12T00:07:54.063Z,93448.30
2017-09-12T00:10:21.852Z,93449.03
2017-09-12T00:12:49.686Z,93444.61
2017-09-12T00:15:17.385Z,93438.77
2017-09-12T00:17:45.101Z,93440.89
2017-09-12T00:20:12.868Z,93444.91
2017-09-12T00:22:40.559Z,93438.05
2017-09-12T00:25:08.286Z,93432.69
2017-09-12T00:27:35.980Z,93432.47
2017-09-12T00:30:03.753Z,93432.27
2017-09-12T00:32:31.482Z,93439.71
2017-09-12T00:34:59.186Z,93444.64
2017-09-12T00:37:26.939Z,93443.22
2017-09-12T00:39:54.723Z,93445.58
2017-09-12T00:42:22.662Z,93443.61
2017-09-12T00:44:50.409Z,93446.48
2017-09-12T00:47:18.159Z,93451.24
2017-09-12T00:49:45.959Z,93450.45
2017-09-12T00:52:13.719Z,93454.13
2017-09-12T00:54:41.469Z,93458.96
2017-09-12T00:57:09.297Z,93456.75
2017-09-12T00:59:37.135Z,93455.30
2017-09-12T01:02:04.890Z,93452.55
2017-09-12T01:04:32.746Z,93454.23
2017-09-12T01:07:00.552Z,93444.61
2017-09-12T01:09:28.272Z,93445.06
2017-09-12T01:11:56.055Z,93438.70
2017-09-12T01:14:23.833Z,93432.87
2017-09-12T01:16:51.545Z,93431.59
2017-09-12T01:19:19.317Z,93431.69
2017-09-12T01:21:47.089Z,93432.33
2017-09-12T01:24:14.927Z,93431.41
2017-09-12T01:26:42.816Z,93428.81
2017-09-12T01:29:10.549Z,93437.97
2017-09-12T01:31:38.297Z,93434.25
2017-09-12T01:34:06.132Z,93439.66
2017-09-12T01:36:33.846Z,93438.22
2017-09-12T01:39:01.656Z,93434.25
2017-09-12T01:41:29.432Z,93439.64
2017-09-12T01:43:57.252Z,93441.13
2017-09-12T01:46:24.940Z,93447.30
2017-09-12T01:48:52.723Z,93444.42
2017-09-12T01:51:20.488Z,93448.28
2017-09-12T01:53:48.298Z,93446.63
2017-09-12T01:56:15.982Z,93444.17
2017-09-12T01:58:43.704Z,93444.27
2017-09-12T02:01:11.483Z,93447.03
2017-09-12T02:03:39.238Z,93448.13
2017-09-12T02:06:06.985Z,93449.83
2017-09-12T02:08:34.806Z,93452.66
2017-09-12T02:11:02.614Z,93453.11
2017-09-12T02:13:30.300Z,93453.19
2017-09-12T02:15:57.995Z,93457.52
2017-09-12T02:18:25.737Z,93449.89
2017-09-12T02:20:53.468Z,93441.26
2017-09-12T02:23:21.250Z,93442.80
2017-09-12T02:25:49.027Z,93442.30
2017-09-12T02:28:16.745Z,93444.45
2017-09-12T02:30:44.586Z,93434.09
2017-09-12T02:33:12.305Z,93434.95
2017-09-12T02:35:40.129Z,93433.30
2017-09-12T02:38:07.878Z,93432.00
2017-09-12T02:40:35.686Z,93435.06
2017-09-12T02:43:03.398Z,93422.06
2017-09-12T02:45:31.103Z,93425.45
2017-09-12T02:47:58.857Z,93421.67
2017-09-12T02:50:26.568Z,93423.33
2017-09-12T02:52:54.282Z,93417.97
2017-09-12T02:55:22.042Z,93420.88
2017-09-12T02:57:49.935Z,93416.00
2017-09-12T03:00:17.773Z,93421.63
2017-09-12T03:02:45.518Z,93420.61
2017-09-12T03:05:13.208Z,93420.62
2017-09-12T03:07:40.932Z,93417.17
2017-09-12T03:10:08.690Z,93422.62
2017-09-12T03:12:36.543Z,93424.44
2017-09-12T03:15:04.338Z,93427.74
2017-09-12T03:17:32.056Z,93430.06
2017-09-12T03:19:59.798Z,93426.37
2017-09-12T03:22:27.549Z,93431.14
2017-09-12T03:24:55.326Z,93429.41
2017-09-12T03:27:23.114Z,93430.98
2017-09-12T03:29:51.338Z,93430.97
2017-09-12T03:32:19.079Z,93433.81
2017-09-12T03:34:47.904Z,93440.75
2017-09-12T03:37:15.686Z,93443.98
2017-09-12T03:39:43.370Z,93441.70
2017-09-12T03:42:11.168Z,93441.94
2017-09-12T03:44:38.878Z,93439.09
2017-09-12T03:47:06.566Z,93434.80
2017-09-12T03:49:35.129Z,93431.17
2017-09-12T03:52:03.340Z,93434.64
2017-09-12T03:54:31.100Z,93439.68
2017-09-12T03:56:58.928Z,93444.34
2017-09-12T03:59:26.734Z,93439.41
2017-09-12T04:01:54.578Z,93440.13
2017-09-12T04:04:22.394Z,93435.90
2017-09-12T04:06:50.687Z,93434.09
2017-09-12T04:47:45.707Z,93429.58
2017-09-12T04:50:14.519Z,93433.99
2017-09-12T04:52:42.232Z,93432.81
2017-09-12T04:55:09.975Z,93433.78
2017-09-12T04:57:37.769Z,93436.94
2017-09-12T05:00:05.634Z,93439.58
2017-09-12T05:02:33.368Z,93442.02
2017-09-12T05:05:01.505Z,93439.85
2017-09-12T05:07:29.310Z,93436.23
2017-09-12T05:09:57.806Z,93438.03
2017-09-12T05:12:25.572Z,93434.06
2017-09-12T05:14:53.365Z,93440.09
2017-09-12T05:17:21.076Z,93435.28
2017-09-12T05:19:48.909Z,93436.70
2017-09-12T05:22:16.604Z,93439.30
2017-09-12T05:24:44.382Z,93437.50
2017-09-12T05:27:12.996Z,93435.84
2017-09-12T05:29:40.728Z,93440.17
2017-09-12T05:32:08.517Z,93438.67
2017-09-12T05:34:36.281Z,93441.83
2017-09-12T05:37:04.117Z,93443.72
2017-09-12T05:39:32.088Z,93447.96
2017-09-12T05:41:59.799Z,93442.84
2017-09-12T05:44:27.521Z,93451.04
2017-09-12T05:46:55.272Z,93452.54
2017-09-12T05:49:23.070Z,93452.73
2017-09-12T05:51:50.841Z,93452.30
2017-09-12T05:54:18.630Z,93462.03
2017-09-12T05:56:46.472Z,93470.35
2017-09-12T05:59:14.197Z,93469.76
2017-09-12T06:01:41.977Z,93462.94
2017-09-12T06:04:09.686Z,93468.69
2017-09-12T06:06:37.485Z,93467.59
2017-09-12T06:09:05.551Z,93463.95
2017-09-12T06:11:33.279Z,93467.53
2017-09-12T06:14:00.986Z,93469.27
2017-09-12T06:16:28.759Z,93475.69
2017-09-12T06:18:56.470Z,93470.20
2017-09-12T06:21:24.286Z,93471.53
2017-09-12T06:23:51.974Z,93466.48
2017-09-12T06:26:19.674Z,93459.19
2017-09-12T06:28:47.461Z,93469.16
2017-09-12T06:31:15.150Z,93472.03
2017-09-12T06:33:42.886Z,93468.64
2017-09-12T06:36:10.779Z,93468.53
2017-09-12T06:38:38.478Z,93467.89
2017-09-12T06:41:06.233Z,93464.45
2017-09-12T06:43:34.003Z,93469.71
2017-09-12T06:46:01.851Z,93472.10
2017-09-12T06:48:29.726Z,93461.02
2017-09-12T06:50:57.445Z,93466.83
2017-09-12T06:53:25.168Z,93459.51
2017-09-12T06:55:52.941Z,93464.23
2017-09-12T06:58:20.732Z,93463.78
2017-09-12T07:00:48.551Z,93458.75
2017-09-12T07:03:16.355Z,93462.50
2017-09-12T07:05:44.178Z,93464.73
2017-09-12T07:08:12.409Z,93469.30
2017-09-12T07:10:40.987Z,93470.70
2017-09-12T07:13:09.403Z,93469.62
2017-09-12T07:15:37.601Z,93473.61
2017-09-12T07:18:05.292Z,93475.85
2017-09-12T07:20:33.106Z,93479.78
2017-09-12T07:23:00.924Z,93484.93
2017-09-12T07:25:28.702Z,93480.14
2017-09-12T07:27:56.892Z,93488.55
2017-09-12T07:30:24.628Z,93487.11
2017-09-12T07:32:52.395Z,93490.25
2017-09-12T07:35:20.129Z,93491.66
2017-09-12T07:37:47.876Z,93494.58
2017-09-12T07:40:15.652Z,93496.01
2017-09-12T07:42:43.411Z,93487.52
2017-09-12T07:45:11.152Z,93480.20
2017-09-12T07:47:38.920Z,93486.09
2017-09-12T07:50:06.623Z,93485.92
2017-09-12T07:52:34.408Z,93488.20
2017-09-12T07:55:02.184Z,93487.50
2017-09-12T07:57:30.078Z,93483.09
2017-09-12T07:59:57.770Z,93487.97
2017-09-12T08:02:25.546Z,93493.69
2017-09-12T08:04:53.281Z,93494.30
2017-09-12T08:07:21.135Z,93491.06
2017-09-12T08:09:48.958Z,93488.49
2017-09-12T08:12:16.695Z,93494.98
2017-09-12T08:14:44.475Z,93506.99
2017-09-12T08:17:12.253Z,93521.14
2017-09-12T08:19:39.946Z,93525.09
2017-09-12T08:22:08.788Z,93535.57
2017-09-12T08:24:37.320Z,93545.31
2017-09-12T08:27:05.034Z,93549.80
2017-09-12T08:29:32.820Z,93541.41
2017-09-12T08:32:00.635Z,93540.59
2017-09-12T08:34:28.343Z,93547.73
2017-09-12T08:36:56.106Z,93556.32
2017-09-12T08:39:23.845Z,93558.61
2017-09-12T08:41:51.673Z,93572.41
2017-09-12T08:44:20.459Z,93568.53
2017-09-12T08:46:48.194Z,93575.30
2017-09-12T08:49:15.920Z,93570.88
2017-09-12T08:51:44.218Z,93570.47
2017-09-12T08:54:12.257Z,93563.80
2017-09-12T08:56:40.052Z,93570.08
2017-09-12T08:59:07.961Z,93576.34
2017-09-12T09:01:35.715Z,93585.10
2017-09-12T09:04:03.438Z,93584.98
2017-09-12T09:06:31.229Z,93597.78
2017-09-12T09:08:59.005Z,93601.98
2017-09-12T09:11:26.789Z,93609.44
2017-09-12T09:13:54.484Z,93616.77
2017-09-12T09:16:22.257Z,93622.95
2017-09-12T09:18:50.002Z,93629.53
2017-09-12T09:21:17.704Z,93629.86
2017-09-12T09:23:45.484Z,93622.80
2017-09-12T09:26:13.161Z,93624.17
2017-09-12T09:28:40.982Z,93624.55
2017-09-12T09:31:08.718Z,93623.21
2017-09-12T09:33:36.475Z,93620.13
2017-09-12T09:36:05.282Z,93624.41
2017-09-12T09:38:33.056Z,93629.44
2017-09-12T09:41:00.847Z,93628.89
2017-09-12T09:43:28.638Z,93635.41
2017-09-12T09:45:57.359Z,93641.61
2017-09-12T09:48:26.054Z,93635.42
2017-09-12T09:50:53.869Z,93639.75
2017-09-12T09:53:21.586Z,93632.45
2017-09-12T09:55:49.340Z,93643.46
2017-09-12T09:58:17.062Z,93642.47
2017-09-12T10:00:44.782Z,93644.69
2017-09-12T10:03:12.532Z,93642.64
2017-09-12T10:05:40.314Z,93642.88
2017-09-12T10:08:08.167Z,93642.16
2017-09-12T10:10:35.872Z,93639.94
2017-09-12T10:13:04.497Z,93646.68
2017-09-12T10:15:32.238Z,93654.50
2017-09-12T10:18:00.923Z,93655.48
2017-09-12T10:20:29.438Z,93659.05
2017-09-12T10:22:57.439Z,93658.54
2017-09-12T10:25:25.548Z,93660.91
2017-09-12T10:27:53.257Z,93665.88
2017-09-12T10:30:20.974Z,93664.45
2017-09-12T10:32:48.781Z,93662.45
2017-09-12T10:35:16.576Z,93667.22
2017-09-12T10:37:44.328Z,93669.59
2017-09-12T10:40:12.136Z,93676.95
2017-09-12T10:42:39.958Z,93677.20
2017-09-12T10:45:07.827Z,93688.20
2017-09-12T10:47:35.561Z,93685.33
2017-09-12T10:50:03.321Z,93694.22
2017-09-12T10:52:31.172Z,93703.01
2017-09-12T10:54:58.969Z,93704.03
2017-09-12T10:57:26.767Z,93709.17
2017-09-12T10:59:54.753Z,93702.97
2017-09-12T11:02:22.553Z,93708.02
2017-09-12T11:04:50.312Z,93703.96
2017-09-12T11:07:18.013Z,93707.83
2017-09-12T11:09:45.868Z,93711.89
2017-09-12T11:12:14.350Z,93718.17
2017-09-12T11:14:42.069Z,93719.83
2017-09-12T11:17:09.811Z,93721.17
2017-09-12T11:19:37.547Z,93722.27
2017-09-12T11:22:05.395Z,93718.29
2017-09-12T11:24:33.159Z,93714.42
2017-09-12T11:27:00.858Z,93715.47
2017-09-12T11:29:28.575Z,93720.02
2017-09-12T11:31:56.369Z,93725.11
2017-09-12T11:34:24.140Z,93718.44
2017-09-12T11:36:51.925Z,93724.57
2017-09-12T11:39:19.761Z,93723.14
2017-09-12T11:41:47.511Z,93723.02
2017-09-12T11:44:16.012Z,93723.22
2017-09-12T11:46:43.986Z,93723.09
2017-09-12T11:49:11.920Z,93727.59
2017-09-12T11:51:40.145Z,93729.02
2017-09-12T11:54:09.346Z,93730.00
2017-09-12T11:56:37.200Z,93728.95
2017-09-12T11:59:05.242Z,93736.55
2017-09-12T12:01:33.125Z,93726.61
2017-09-12T12:04:01.106Z,93729.05
2017-09-12T12:06:28.925Z,93734.04
2017-09-12T12:08:57.496Z,93740.08
2017-09-12T12:11:25.193Z,93737.67
2017-09-12T12:13:53.144Z,93726.98
2017-09-12T12:16:20.924Z,93721.16
2017-09-12T12:18:48.789Z,93722.41
2017-09-12T12:21:16.669Z,93717.53
2017-09-12T12:23:45.028Z,93723.20
2017-09-12T12:26:13.604Z,93732.00
2017-09-12T12:28:41.611Z,93731.81
2017-09-12T12:31:09.451Z,93731.66
2017-09-12T12:33:37.589Z,93734.03
2017-09-12T12:36:05.603Z,93741.06
2017-09-12T12:38:33.492Z,93743.75
2017-09-12T12:41:01.359Z,93743.63
2017-09-12T12:43:29.428Z,93756.19
2017-09-12T12:45:57.279Z,93754.73
2017-09-12T12:48:25.169Z,93762.07
2017-09-12T12:50:53.362Z,93769.38
2017-09-12T12:53:21.388Z,93770.32
2017-09-12T12:55:49.123Z,93768.42
2017-09-12T12:58:17.177Z,93773.28
2017-09-12T13:00:45.316Z,93769.84
2017-09-12T13:03:13.452Z,93765.95
2017-09-12T13:05:41.378Z,93763.53
2017-09-12T13:08:09.529Z,93765.22
2017-09-12T13:10:37.338Z,93764.23
2017-09-12T13:13:05.396Z,93758.00
2017-09-12T13:15:33.293Z,93756.55
2017-09-12T13:18:01.167Z,93754.70
2017-09-12T13:20:29.002Z,93758.88
2017-09-12T13:22:57.740Z,93757.75
2017-09-12T13:25:26.627Z,93754.27
2017-09-12T13:27:54.496Z,93755.53
2017-09-12T13:30:22.495Z,93755.25
2017-09-12T13:32:50.505Z,93750.30
2017-09-12T13:35:19.625Z,93759.69
2017-09-12T13:37:47.882Z,93767.17
2017-09-12T13:40:15.709Z,93773.52
2017-09-12T13:42:43.494Z,93776.82
2017-09-12T13:45:11.441Z,93779.20
2017-09-12T13:47:39.160Z,93792.53
2017-09-12T13:50:06.941Z,93787.39
2017-09-12T13:52:35.071Z,93784.66
2017-09-12T13:55:03.923Z,93786.38
2017-09-12T13:57:31.766Z,93796.16
2017-09-12T14:00:00.091Z,93795.26
2017-09-12T14:02:30.666Z,93802.03
2017-09-12T14:04:59.113Z,93803.11
2017-09-12T14:07:30.186Z,93803.84
2017-09-12T14:09:57.999Z,93798.09
2017-09-12T14:12:26.445Z,93802.66
2017-09-12T14:14:55.158Z,93805.83
2017-09-12T14:17:24.728Z,93810.00
2017-09-12T14:19:56.369Z,93804.75
2017-09-12T14:22:25.282Z,93810.59
2017-09-12T14:24:53.301Z,93814.33
2017-09-12T14:27:21.449Z,93812.13
2017-09-12T14:29:49.353Z,93813.38
2017-09-12T14:32:17.230Z,93816.92
2017-09-12T14:34:45.069Z,93811.96
2017-09-12T14:37:14.489Z,93817.00
2017-09-12T14:39:42.628Z,93814.17
2017-09-12T14:42:10.680Z,93818.52
2017-09-12T14:44:38.897Z,93822.19
2017-09-12T14:47:06.854Z,93820.91
2017-09-12T14:49:34.806Z,93821.38
2017-09-12T14:52:02.667Z,93820.90
2017-09-12T14:54:31.702Z,93818.01
2017-09-12T14:56:59.818Z,93820.09
2017-09-12T14:59:27.989Z,93823.52
2017-09-12T15:01:55.734Z,93820.13
2017-09-12T15:04:24.210Z,93824.22
2017-09-12T15:06:52.136Z,93828.45
2017-09-12T15:09:21.327Z,93835.92
2017-09-12T15:11:49.190Z,93830.11
2017-09-12T15:14:17.085Z,93824.91
2017-09-12T15:16:45.298Z,93829.53
2017-09-12T15:19:14.132Z,93830.21
2017-09-12T15:21:45.703Z,93844.59
2017-09-12T15:24:13.889Z,93833.21
2017-09-12T15:26:41.761Z,93831.81
2017-09-12T15:29:09.685Z,93838.82
2017-09-12T15:31:37.751Z,93845.44
2017-09-12T15:34:09.079Z,93844.07
2017-09-12T15:36:39.090Z,93839.49
2017-09-12T15:39:07.175Z,93846.27
2017-09-12T15:41:36.022Z,93858.14
2017-09-12T15:44:03.761Z,93856.67
2017-09-12T15:46:32.501Z,93862.10
2017-09-12T15:49:01.588Z,93861.66
2017-09-12T15:51:29.438Z,93856.97
2017-09-12T15:53:57.367Z,93855.33
2017-09-12T15:56:25.925Z,93859.92
2017-09-12T15:58:53.762Z,93857.09
2017-09-12T16:01:21.568Z,93861.16
2017-09-12T16:03:50.177Z,93865.52
2017-09-12T16:06:18.697Z,93867.27
2017-09-12T16:08:48.553Z,93865.09
2017-09-12T16:11:17.257Z,93860.88
2017-09-12T16:13:45.062Z,93856.47
2017-09-12T16:16:13.371Z,93867.20
2017-09-12T16:18:41.447Z,93865.74
2017-09-12T16:21:09.182Z,93863.36
2017-09-12T16:23:37.469Z,93862.62
2017-09-12T16:26:05.206Z,93869.70
2017-09-12T16:28:32.992Z,93866.08
2017-09-12T16:31:01.165Z,93869.81
2017-09-12T16:33:28.968Z,93863.92
2017-09-12T16:35:56.795Z,93876.03
2017-09-12T16:38:24.687Z,93864.89
2017-09-12T16:40:52.453Z,93865.97
2017-09-12T16:43:20.244Z,93868.20
2017-09-12T16:45:48.438Z,93867.98
2017-09-12T16:48:16.175Z,93875.07
2017-09-12T16:50:44.410Z,93870.58
2017-09-12T16:53:12.600Z,93870.86
2017-09-12T16:55:40.615Z,93867.19
2017-09-12T16:58:08.460Z,93878.27
2017-09-12T17:00:36.224Z,93870.07
2017-09-12T17:03:04.023Z,93872.39
2017-09-12T17:05:32.031Z,93873.09
2017-09-12T17:07:59.799Z,93884.94
2017-09-12T17:10:27.536Z,93885.59
2017-09-12T17:12:56.233Z,93885.05
2017-09-12T17:15:24.908Z,93884.55
2017-09-12T17:17:52.619Z,93890.16
2017-09-12T17:20:20.371Z,93887.45
2017-09-12T17:22:48.095Z,93889.59
2017-09-12T17:25:16.831Z,93894.63
2017-09-12T17:27:44.553Z,93904.12
2017-09-12T17:30:12.350Z,93902.16
2017-09-12T17:32:40.493Z,93907.56
2017-09-12T17:35:08.442Z,93908.16
2017-09-12T17:37:37.143Z,93911.09
2017-09-12T17:40:05.007Z,93905.27
2017-09-12T17:42:32.792Z,93915.94
2017-09-12T17:45:00.826Z,93915.72
2017-09-12T17:47:29.903Z,93924.63
2017-09-12T17:49:59.290Z,93929.05
2017-09-12T17:52:27.071Z,93933.40
2017-09-12T17:54:55.893Z,93932.99
2017-09-12T17:57:24.777Z,93941.52
2017-09-12T17:59:53.411Z,93939.48
2017-09-12T18:02:21.223Z,93943.05
2017-09-12T18:04:49.463Z,93944.63
2017-09-12T18:07:18.563Z,93943.51
2017-09-12T18:09:46.391Z,93956.55
2017-09-12T18:12:14.897Z,93966.72
2017-09-12T18:14:43.125Z,93966.79
2017-09-12T18:17:12.220Z,93969.86
2017-09-12T18:19:40.046Z,93980.44
2017-09-12T18:22:08.166Z,93988.33
2017-09-12T18:24:36.117Z,93997.33
2017-09-12T18:27:04.750Z,93991.14
2017-09-12T18:29:32.589Z,94003.19
2017-09-12T18:32:00.673Z,94000.46
2017-09-12T18:34:29.760Z,94011.86
2017-09-12T18:36:57.583Z,94006.05
2017-09-12T18:39:25.847Z,94007.00
2017-09-12T18:41:56.290Z,94011.86
2017-09-12T18:44:24.777Z,94012.66
2017-09-12T18:46:52.766Z,94018.11
2017-09-12T18:49:20.880Z,94024.34
2017-09-12T18:51:49.008Z,94027.23
2017-09-12T18:54:16.846Z,94035.13
2017-09-12T18:56:45.470Z,94036.89
2017-09-12T18:59:13.948Z,94037.69
2017-09-12T19:01:42.103Z,94045.17
2017-09-12T19:04:09.967Z,94044.09
2017-09-12T19:06:38.400Z,94047.98
2017-09-12T19:09:06.552Z,94040.08
2017-09-12T19:11:34.387Z,94040.08
2017-09-12T19:14:03.142Z,94049.53
2017-09-12T19:16:31.065Z,94057.61
2017-09-12T19:18:59.023Z,94051.84
2017-09-12T19:21:27.215Z,94062.63
2017-09-12T19:23:55.196Z,94057.89
2017-09-12T19:26:24.612Z,94066.92
2017-09-12T19:28:52.620Z,94060.36
2017-09-12T19:31:21.698Z,94067.03
2017-09-12T19:33:49.521Z,94074.78
2017-09-12T19:36:17.375Z,94073.41
2017-09-12T19:38:45.656Z,94084.38
2017-09-12T19:41:13.513Z,94081.46
2017-09-12T19:43:41.724Z,94083.45
2017-09-12T19:46:09.638Z,94093.22
2017-09-12T19:48:38.143Z,94094.87
2017-09-12T19:51:06.169Z,94095.70
2017-09-12T19:53:34.040Z,94105.20
2017-09-12T19:56:07.838Z,94106.12
2017-09-12T19:58:35.690Z,94108.41
2017-09-12T20:01:04.459Z,94110.31
2017-09-12T20:03:32.870Z,94108.00
2017-09-12T20:06:03.284Z,94119.87
2017-09-12T20:08:31.914Z,94117.67
2017-09-12T20:10:59.840Z,94122.40
2017-09-12T20:13:27.646Z,94115.84
2017-09-12T20:15:55.424Z,94122.91
2017-09-12T20:18:23.310Z,94115.66
2017-09-12T20:20:51.123Z,94126.12
2017-09-12T20:23:18.889Z,94124.89
2017-09-12T20:25:46.645Z,94129.37
2017-09-12T20:28:14.365Z,94132.58
2017-09-12T20:30:42.101Z,94144.16
2017-09-12T20:33:10.070Z,94135.35
2017-09-12T20:35:37.829Z,94134.02
2017-09-12T20:38:05.624Z,94139.43
2017-09-12T20:40:33.459Z,94145.06
2017-09-12T20:43:01.750Z,94147.77
2017-09-12T20:45:29.482Z,94150.86
2017-09-12T20:47:57.337Z,94149.38
2017-09-12T20:50:25.097Z,94150.58
2017-09-12T20:52:52.938Z,94151.28
2017-09-12T20:55:20.732Z,94149.75
2017-09-12T20:57:48.577Z,94151.73
2017-09-12T21:00:16.488Z,94155.73
2017-09-12T21:02:44.402Z,94162.22
2017-09-12T21:05:12.604Z,94173.47
2017-09-12T21:07:40.511Z,94172.34
2017-09-12T21:10:08.921Z,94174.03
2017-09-12T21:12:36.717Z,94187.37
2017-09-12T21:15:04.577Z,94179.42
2017-09-12T21:17:32.457Z,94190.31
2017-09-12T21:20:00.157Z,94198.84
2017-09-12T21:22:28.008Z,94187.10
2017-09-12T21:24:56.353Z,94199.73
2017-09-12T21:27:24.126Z,94202.52
2017-09-12T21:29:51.839Z,94198.19
2017-09-12T21:32:19.634Z,94195.10
2017-09-12T21:34:47.428Z,94206.73
2017-09-12T21:37:15.186Z,94216.34
2017-09-12T21:39:43.022Z,94212.27
2017-09-12T21:42:10.865Z,94202.09
2017-09-12T21:44:38.702Z,94206.57
2017-09-12T21:47:06.489Z,94207.18
2017-09-12T21:49:34.333Z,94206.07
2017-09-12T21:52:02.049Z,94204.98
2017-09-12T21:54:29.885Z,94210.89
2017-09-12T21:56:57.661Z,94209.17
2017-09-12T21:59:25.544Z,94200.30
2017-09-12T22:01:53.346Z,94200.66
2017-09-12T22:04:21.109Z,94197.97
2017-09-12T22:06:48.921Z,94203.84
2017-09-12T22:09:16.638Z,94210.55
2017-09-12T22:11:44.412Z,94206.25
2017-09-12T22:14:12.110Z,94206.70
2017-09-12T22:16:40.049Z,94213.09
2017-09-12T22:19:07.870Z,94218.05
2017-09-12T22:21:35.640Z,94225.84
2017-09-12T22:24:03.482Z,94226.05
2017-09-12T22:26:31.204Z,94231.13
2017-09-12T22:28:58.964Z,94235.13
2017-09-12T22:31:26.754Z,94237.14
2017-09-12T22:33:54.483Z,94237.89
2017-09-12T22:36:22.379Z,94239.66
2017-09-12T22:38:50.091Z,94243.16
2017-09-12T22:41:17.791Z,94231.48
2017-09-12T22:43:46.532Z,94219.23
2017-09-12T22:46:14.254Z,94225.86
2017-09-12T22:48:42.007Z,94223.84
2017-09-12T22:51:09.822Z,94222.73
2017-09-12T22:53:37.512Z,94216.64
2017-09-12T22:56:05.241Z,94221.98
2017-09-12T22:58:33.030Z,94218.17
2017-09-12T23:01:00.758Z,94214.20
2017-09-12T23:03:28.550Z,94209.41
2017-09-12T23:05:56.264Z,94208.03
2017-09-12T23:08:24.007Z,94210.58
2017-09-12T23:10:51.725Z,94214.02
2017-09-12T23:13:19.501Z,94218.95
2017-09-12T23:15:48.065Z,94230.61
2017-09-12T23:18:15.837Z,94230.42
2017-09-12T23:20:43.642Z,94234.45
2017-09-12T23:23:11.438Z,94235.95
2017-09-12T23:25:39.142Z,94230.66
2017-09-12T23:28:06.868Z,94234.02
2017-09-12T23:30:34.615Z,94237.94
2017-09-12T23:33:02.388Z,94228.24
2017-09-12T23:35:30.160Z,94228.44
2017-09-12T23:37:57.931Z,94228.33
2017-09-12T23:40:25.700Z,94233.70
2017-09-12T23:42:53.450Z,94239.00
2017-09-12T23:45:21.249Z,94233.56
2017-09-12T23:47:48.942Z,94238.66
2017-09-12T23:50:16.696Z,94235.11
2017-09-12T23:52:44.373Z,94238.05
2017-09-12T23:55:12.092Z,94238.66
2017-09-12T23:57:39.844Z,94237.09
